sensor_id;sensor_type;location;lat;lon;timestamp;P1;durP1;ratioP1;P2;durP2;ratioP2
10769;SDS011;5437;50.852;4.438;2022-09-28T09:27:13;4.95;;;2.72;;
10769;SDS011;5437;50.852;4.438;2022-09-28T09:32:26;4.25;;;2.50;;
10769;SDS011;5437;50.852;4.438;2022-09-28T09:35:02;5.78;;;2.80;;
10769;SDS011;5437;50.852;4.438;2022-09-28T09:40:22;2.88;;;2.10;;
10769;SDS011;5437;50.852;4.438;2022-09-28T09:48:43;5.35;;;2.42;;
10769;SDS011;5437;50.852;4.438;2022-09-28T09:50:51;3.70;;;2.00;;
10769;SDS011;5437;50.852;4.438;2022-09-28T09:56:06;4.03;;;1.85;;
10769;SDS011;5437;50.852;4.438;2022-09-28T09:58:37;2.70;;;1.80;;
10769;SDS011;5437;50.852;4.438;2022-09-28T10:01:12;3.53;;;2.03;;
10769;SDS011;5437;50.852;4.438;2022-09-28T10:03:39;2.85;;;1.90;;
10769;SDS011;5437;50.852;4.438;2022-09-28T10:06:07;2.60;;;2.10;;
10769;SDS011;5437;50.852;4.438;2022-09-28T10:08:36;4.18;;;1.80;;
10769;SDS011;5437;50.852;4.438;2022-09-28T10:11:06;4.10;;;1.95;;
10769;SDS011;5437;50.852;4.438;2022-09-28T10:13:33;2.38;;;1.42;;
10769;SDS011;5437;50.852;4.438;2022-09-28T10:15:59;2.92;;;1.73;;
10769;SDS011;5437;50.852;4.438;2022-09-28T10:18:26;2.55;;;1.70;;
10769;SDS011;5437;50.852;4.438;2022-09-28T10:20:52;2.92;;;1.50;;
10769;SDS011;5437;50.852;4.438;2022-09-28T10:23:23;2.00;;;1.42;;
10769;SDS011;5437;50.852;4.438;2022-09-28T10:25:50;2.78;;;1.67;;
10769;SDS011;5437;50.852;4.438;2022-09-28T10:28:19;3.42;;;1.50;;
10769;SDS011;5437;50.852;4.438;2022-09-28T10:30:46;1.98;;;1.13;;
10769;SDS011;5437;50.852;4.438;2022-09-28T10:33:31;2.90;;;1.42;;
10769;SDS011;5437;50.852;4.438;2022-09-28T10:36:00;3.30;;;1.40;;
10769;SDS011;5437;50.852;4.438;2022-09-28T10:38:29;3.47;;;1.48;;
10769;SDS011;5437;50.852;4.438;2022-09-28T10:40:59;3.47;;;1.35;;
10769;SDS011;5437;50.852;4.438;2022-09-28T10:43:28;2.13;;;1.40;;
10769;SDS011;5437;50.852;4.438;2022-09-28T10:46:08;2.22;;;1.25;;
10769;SDS011;5437;50.852;4.438;2022-09-28T10:51:12;2.15;;;0.88;;
10769;SDS011;5437;50.852;4.438;2022-09-28T10:53:39;4.03;;;0.90;;
10769;SDS011;5437;50.852;4.438;2022-09-28T10:56:06;2.42;;;0.80;;
10769;SDS011;5437;50.852;4.438;2022-09-28T11:01:00;2.80;;;0.90;;
10769;SDS011;5437;50.852;4.438;2022-09-28T11:03:27;1.83;;;0.82;;
10769;SDS011;5437;50.852;4.438;2022-09-28T11:05:54;2.80;;;1.02;;
10769;SDS011;5437;50.852;4.438;2022-09-28T11:08:24;3.03;;;1.10;;
10769;SDS011;5437;50.852;4.438;2022-09-28T11:11:04;2.65;;;1.00;;
10769;SDS011;5437;50.852;4.438;2022-09-28T11:13:36;1.63;;;0.98;;
10769;SDS011;5437;50.852;4.438;2022-09-28T11:16:03;3.97;;;1.27;;
10769;SDS011;5437;50.852;4.438;2022-09-28T11:18:29;1.25;;;1.00;;
10769;SDS011;5437;50.852;4.438;2022-09-28T11:21:06;3.17;;;1.17;;
10769;SDS011;5437;50.852;4.438;2022-09-28T11:23:32;2.45;;;1.20;;
10769;SDS011;5437;50.852;4.438;2022-09-28T11:26:00;4.50;;;1.35;;
10769;SDS011;5437;50.852;4.438;2022-09-28T11:28:29;1.90;;;0.88;;
10769;SDS011;5437;50.852;4.438;2022-09-28T11:30:56;2.55;;;1.33;;
10769;SDS011;5437;50.852;4.438;2022-09-28T11:33:28;2.65;;;1.25;;
10769;SDS011;5437;50.852;4.438;2022-09-28T11:35:55;2.30;;;1.20;;
10769;SDS011;5437;50.852;4.438;2022-09-28T11:43:54;2.00;;;1.00;;
10769;SDS011;5437;50.852;4.438;2022-09-28T11:49:26;1.92;;;1.33;;
10769;SDS011;5437;50.852;4.438;2022-09-28T11:51:54;2.35;;;1.30;;
10769;SDS011;5437;50.852;4.438;2022-09-28T11:54:26;2.47;;;1.50;;
10769;SDS011;5437;50.852;4.438;2022-09-28T11:56:53;1.52;;;1.42;;
10769;SDS011;5437;50.852;4.438;2022-09-28T11:59:28;2.53;;;1.20;;
10769;SDS011;5437;50.852;4.438;2022-09-28T12:01:56;2.15;;;1.55;;
10769;SDS011;5437;50.852;4.438;2022-09-28T12:04:24;4.15;;;1.20;;
10769;SDS011;5437;50.852;4.438;2022-09-28T12:07:35;3.08;;;1.50;;
10769;SDS011;5437;50.852;4.438;2022-09-28T12:09:41;1.80;;;1.30;;
10769;SDS011;5437;50.852;4.438;2022-09-28T12:12:14;2.42;;;1.17;;
10769;SDS011;5437;50.852;4.438;2022-09-28T12:14:42;2.30;;;1.30;;
10769;SDS011;5437;50.852;4.438;2022-09-28T12:17:23;2.78;;;1.30;;
10769;SDS011;5437;50.852;4.438;2022-09-28T12:19:52;2.35;;;1.13;;
10769;SDS011;5437;50.852;4.438;2022-09-28T12:22:25;3.72;;;1.20;;
10769;SDS011;5437;50.852;4.438;2022-09-28T12:24:55;2.25;;;1.40;;
10769;SDS011;5437;50.852;4.438;2022-09-28T12:30:14;1.92;;;1.30;;
10769;SDS011;5437;50.852;4.438;2022-09-28T12:33:00;2.50;;;1.40;;
10769;SDS011;5437;50.852;4.438;2022-09-28T12:43:31;1.35;;;0.73;;
10769;SDS011;5437;50.852;4.438;2022-09-28T12:48:33;3.05;;;1.00;;
10769;SDS011;5437;50.852;4.438;2022-09-28T12:59:13;1.10;;;0.82;;
10769;SDS011;5437;50.852;4.438;2022-09-28T13:19:58;1.83;;;1.05;;
10769;SDS011;5437;50.852;4.438;2022-09-28T13:25:14;2.28;;;0.98;;
10769;SDS011;5437;50.852;4.438;2022-09-28T13:27:44;1.30;;;0.80;;
10769;SDS011;5437;50.852;4.438;2022-09-28T13:30:12;2.65;;;0.98;;
10769;SDS011;5437;50.852;4.438;2022-09-28T13:32:39;1.00;;;0.90;;
10769;SDS011;5437;50.852;4.438;2022-09-28T13:35:06;1.98;;;1.20;;
10769;SDS011;5437;50.852;4.438;2022-09-28T13:37:32;0.93;;;0.80;;
10769;SDS011;5437;50.852;4.438;2022-09-28T13:39:58;0.85;;;0.82;;
10769;SDS011;5437;50.852;4.438;2022-09-28T13:53:15;2.30;;;1.13;;
10769;SDS011;5437;50.852;4.438;2022-09-28T13:55:52;0.80;;;0.75;;
10769;SDS011;5437;50.852;4.438;2022-09-28T14:00:48;1.00;;;0.90;;
10769;SDS011;5437;50.852;4.438;2022-09-28T14:06:04;2.50;;;0.98;;
10769;SDS011;5437;50.852;4.438;2022-09-28T14:12:00;1.83;;;1.08;;
10769;SDS011;5437;50.852;4.438;2022-09-28T14:16:38;2.00;;;1.05;;
10769;SDS011;5437;50.852;4.438;2022-09-28T14:19:15;2.35;;;1.17;;
10769;SDS011;5437;50.852;4.438;2022-09-28T14:21:46;1.92;;;1.10;;
10769;SDS011;5437;50.852;4.438;2022-09-28T14:29:35;1.92;;;0.90;;
10769;SDS011;5437;50.852;4.438;2022-09-28T14:34:41;1.48;;;1.00;;
10769;SDS011;5437;50.852;4.438;2022-09-28T14:37:21;2.25;;;0.90;;
10769;SDS011;5437;50.852;4.438;2022-09-28T14:40:16;3.03;;;0.90;;
10769;SDS011;5437;50.852;4.438;2022-09-28T14:54:36;1.20;;;0.90;;
10769;SDS011;5437;50.852;4.438;2022-09-28T14:56:40;1.48;;;0.82;;
10769;SDS011;5437;50.852;4.438;2022-09-28T14:59:12;2.63;;;0.85;;
10769;SDS011;5437;50.852;4.438;2022-09-28T15:01:39;2.95;;;1.02;;
10769;SDS011;5437;50.852;4.438;2022-09-28T15:04:08;1.73;;;1.00;;
10769;SDS011;5437;50.852;4.438;2022-09-28T15:14:25;2.15;;;1.10;;
10769;SDS011;5437;50.852;4.438;2022-09-28T15:16:55;1.48;;;1.00;;
10769;SDS011;5437;50.852;4.438;2022-09-28T15:19:27;3.50;;;1.40;;
10769;SDS011;5437;50.852;4.438;2022-09-28T15:21:57;1.92;;;1.17;;
10769;SDS011;5437;50.852;4.438;2022-09-28T15:26:52;2.55;;;1.13;;
10769;SDS011;5437;50.852;4.438;2022-09-28T15:29:20;1.30;;;1.10;;
10769;SDS011;5437;50.852;4.438;2022-09-28T15:31:47;1.10;;;1.00;;
10769;SDS011;5437;50.852;4.438;2022-09-28T15:34:32;1.10;;;0.70;;
